sensor_id;sensor_type;location;lat;lon;timestamp;P1;P2;P0
74436;PMS7003;62868;52.360;30.424;2023-11-22T00:01:47;0;0;0
74436;PMS7003;62868;52.360;30.424;2023-11-22T00:06:09;0;0;0
74436;PMS7003;62868;52.360;30.424;2023-11-22T00:11:11;0.3;0;0
74436;PMS7003;62868;52.360;30.424;2023-11-22T00:16:09;0.3;0;0
74436;PMS7003;62868;52.360;30.424;2023-11-22T00:21:53;0.7;0;0
74436;PMS7003;62868;52.360;30.424;2023-11-22T00:26:39;0;0;0
74436;PMS7003;62868;52.360;30.424;2023-11-22T00:31:19;0;0;0
74436;PMS7003;62868;52.360;30.424;2023-11-22T00:36:31;0.7;0;0
74436;PMS7003;62868;52.360;30.424;2023-11-22T00:41:33;0.3;0;0
74436;PMS7003;62868;52.360;30.424;2023-11-22T00:46:53;0.3;0.3;0
74436;PMS7003;62868;52.360;30.424;2023-11-22T00:51:43;0.3;0;0
74436;PMS7003;62868;52.360;30.424;2023-11-22T00:56:09;0.3;0;0
74436;PMS7003;62868;52.360;30.424;2023-11-22T01:01:09;0.3;0;0
74436;PMS7003;62868;52.360;30.424;2023-11-22T01:06:51;0.3;0;0
74436;PMS7003;62868;52.360;30.424;2023-11-22T01:11:53;0;0;0
74436;PMS7003;62868;52.360;30.424;2023-11-22T01:16:43;0.3;0;0
74436;PMS7003;62868;52.360;30.424;2023-11-22T01:21:19;1;0;0
74436;PMS7003;62868;52.360;30.424;2023-11-22T01:26:31;0;0;0
74436;PMS7003;62868;52.360;30.424;2023-11-22T01:31:43;0.7;0.3;0
74436;PMS7003;62868;52.360;30.424;2023-11-22T01:36:41;0;0;0
74436;PMS7003;62868;52.360;30.424;2023-11-22T01:41:44;0;0;0
74436;PMS7003;62868;52.360;30.424;2023-11-22T01:46:21;0.3;0;0
74436;PMS7003;62868;52.360;30.424;2023-11-22T01:51:11;0;0;0
74436;PMS7003;62868;52.360;30.424;2023-11-22T01:56:09;0;0;0
74436;PMS7003;62868;52.360;30.424;2023-11-22T02:01:53;0.3;0;0
74436;PMS7003;62868;52.360;30.424;2023-11-22T02:06:21;0.3;0.3;0
74436;PMS7003;62868;52.360;30.424;2023-11-22T02:11:11;0;0;0
74436;PMS7003;62868;52.360;30.424;2023-11-22T02:16:11;0;0;0
74436;PMS7003;62868;52.360;30.424;2023-11-22T02:21:43;0;0;0
74436;PMS7003;62868;52.360;30.424;2023-11-22T02:26:53;0;0;0
74436;PMS7003;62868;52.360;30.424;2023-11-22T02:31:42;0;0;0
74436;PMS7003;62868;52.360;30.424;2023-11-22T02:36:21;0.3;0;0
74436;PMS7003;62868;52.360;30.424;2023-11-22T02:41:09;0.3;0;0
74436;PMS7003;62868;52.360;30.424;2023-11-22T02:46:31;0.7;0;0
74436;PMS7003;62868;52.360;30.424;2023-11-22T02:51:53;0.3;0;0
74436;PMS7003;62868;52.360;30.424;2023-11-22T02:56:19;0.5;0;0
74436;PMS7003;62868;52.360;30.424;2023-11-22T03:01:19;0;0;0
74436;PMS7003;62868;52.360;30.424;2023-11-22T03:06:31;0;0;0
74436;PMS7003;62868;52.360;30.424;2023-11-22T03:11:23;0.3;0;0
74436;PMS7003;62868;52.360;30.424;2023-11-22T03:16:53;0;0;0
74436;PMS7003;62868;52.360;30.424;2023-11-22T03:21:43;0;0;0
74436;PMS7003;62868;52.360;30.424;2023-11-22T03:26:09;0;0;0
74436;PMS7003;62868;52.360;30.424;2023-11-22T03:31:53;0;0;0
74436;PMS7003;62868;52.360;30.424;2023-11-22T03:36:19;0;0;0
74436;PMS7003;62868;52.360;30.424;2023-11-22T03:41:53;0;0;0
74436;PMS7003;62868;52.360;30.424;2023-11-22T03:46:11;0;0;0
74436;PMS7003;62868;52.360;30.424;2023-11-22T03:51:53;0;0;0
74436;PMS7003;62868;52.360;30.424;2023-11-22T03:56:31;0;0;0
74436;PMS7003;62868;52.360;30.424;2023-11-22T04:01:53;0.3;0;0
74436;PMS7003;62868;52.360;30.424;2023-11-22T04:06:53;0.3;0;0
74436;PMS7003;62868;52.360;30.424;2023-11-22T04:11:43;0.3;0;0
74436;PMS7003;62868;52.360;30.424;2023-11-22T04:16:09;0.3;0;0
74436;PMS7003;62868;52.360;30.424;2023-11-22T04:21:19;0.8;0;0
74436;PMS7003;62868;52.360;30.424;2023-11-22T04:26:33;2.7;1.3;1
74436;PMS7003;62868;52.360;30.424;2023-11-22T04:31:53;2.7;1.7;1.3
74436;PMS7003;62868;52.360;30.424;2023-11-22T04:36:55;2;1;0.3
74436;PMS7003;62868;52.360;30.424;2023-11-22T04:41:53;1;0.5;0.3
74436;PMS7003;62868;52.360;30.424;2023-11-22T04:46:11;0;0;0
74436;PMS7003;62868;52.360;30.424;2023-11-22T04:51:49;0;0;0
74436;PMS7003;62868;52.360;30.424;2023-11-22T04:56:31;0;0;0
74436;PMS7003;62868;52.360;30.424;2023-11-22T05:01:09;0.5;0;0
74436;PMS7003;62868;52.360;30.424;2023-11-22T05:06:09;0;0;0
74436;PMS7003;62868;52.360;30.424;2023-11-22T05:11:33;0;0;0
74436;PMS7003;62868;52.360;30.424;2023-11-22T05:16:53;0;0;0
74436;PMS7003;62868;52.360;30.424;2023-11-22T05:21:41;0;0;0
74436;PMS7003;62868;52.360;30.424;2023-11-22T05:26:39;0;0;0
74436;PMS7003;62868;52.360;30.424;2023-11-22T05:31:09;0.3;0;0
74436;PMS7003;62868;52.360;30.424;2023-11-22T05:36:11;0.5;0;0
74436;PMS7003;62868;52.360;30.424;2023-11-22T05:41:33;0.3;0;0
74436;PMS7003;62868;52.360;30.424;2023-11-22T05:46:09;0;0;0
74436;PMS7003;62868;52.360;30.424;2023-11-22T05:51:09;0;0;0
74436;PMS7003;62868;52.360;30.424;2023-11-22T05:56:11;0.3;0;0
74436;PMS7003;62868;52.360;30.424;2023-11-22T06:01:15;0;0;0
74436;PMS7003;62868;52.360;30.424;2023-11-22T06:06:51;0.3;0;0
74436;PMS7003;62868;52.360;30.424;2023-11-22T06:11:33;0;0;0
74436;PMS7003;62868;52.360;30.424;2023-11-22T06:16:39;0;0;0
74436;PMS7003;62868;52.360;30.424;2023-11-22T06:21:17;0.3;0;0
74436;PMS7003;62868;52.360;30.424;2023-11-22T06:26:53;0.3;0;0
74436;PMS7003;62868;52.360;30.424;2023-11-22T06:31:51;0.3;0;0
74436;PMS7003;62868;52.360;30.424;2023-11-22T06:36:31;0;0;0
74436;PMS7003;62868;52.360;30.424;2023-11-22T06:41:11;0.7;0;0
74436;PMS7003;62868;52.360;30.424;2023-11-22T06:46:11;0;0;0
74436;PMS7003;62868;52.360;30.424;2023-11-22T06:51:51;0;0;0
74436;PMS7003;62868;52.360;30.424;2023-11-22T06:56:49;0;0;0
74436;PMS7003;62868;52.360;30.424;2023-11-22T07:01:11;0.3;0;0
74436;PMS7003;62868;52.360;30.424;2023-11-22T07:06:41;0;0;0
74436;PMS7003;62868;52.360;30.424;2023-11-22T07:11:09;1;0.3;0
74436;PMS7003;62868;52.360;30.424;2023-11-22T07:16:39;0;0;0
74436;PMS7003;62868;52.360;30.424;2023-11-22T07:21:51;1.7;0.3;0
74436;PMS7003;62868;52.360;30.424;2023-11-22T07:26:31;1.7;0.7;0.3
74436;PMS7003;62868;52.360;30.424;2023-11-22T07:31:09;0.5;0.5;0.3
74436;PMS7003;62868;52.360;30.424;2023-11-22T07:36:31;0.7;0;0
74436;PMS7003;62868;52.360;30.424;2023-11-22T07:41:10;1.7;0;0
74436;PMS7003;62868;52.360;30.424;2023-11-22T07:46:53;0.7;0;0
74436;PMS7003;62868;52.360;30.424;2023-11-22T07:51:51;0.3;0;0
74436;PMS7003;62868;52.360;30.424;2023-11-22T07:56:39;0;0;0
74436;PMS7003;62868;52.360;30.424;2023-11-22T08:01:11;0.7;0;0
74436;PMS7003;62868;52.360;30.424;2023-11-22T08:06:40;0.7;0;0
74436;PMS7003;62868;52.360;30.424;2023-11-22T08:11:51;0.3;0;0
74436;PMS7003;62868;52.360;30.424;2023-11-22T08:16:31;0;0;0
74436;PMS7003;62868;52.360;30.424;2023-11-22T08:21:09;0.7;0;0
74436;PMS7003;62868;52.360;30.424;2023-11-22T08:26:09;0.3;0;0
74436;PMS7003;62868;52.360;30.424;2023-11-22T08:31:41;0.5;0.3;0
74436;PMS7003;62868;52.360;30.424;2023-11-22T08:36:51;0.7;0;0
74436;PMS7003;62868;52.360;30.424;2023-11-22T08:41:45;1.3;0;0
74436;PMS7003;62868;52.360;30.424;2023-11-22T08:46:11;2;0.3;0
74436;PMS7003;62868;52.360;30.424;2023-11-22T08:51:09;1.5;1;0
74436;PMS7003;62868;52.360;30.424;2023-11-22T08:56:31;1.7;0.7;0
74436;PMS7003;62868;52.360;30.424;2023-11-22T09:01:53;0;0;0
74436;PMS7003;62868;52.360;30.424;2023-11-22T09:06:31;0.7;0;0
74436;PMS7003;62868;52.360;30.424;2023-11-22T09:11:09;1;0.5;0.3
74436;PMS7003;62868;52.360;30.424;2023-11-22T09:16:11;1.7;0.3;0.3
74436;PMS7003;62868;52.360;30.424;2023-11-22T09:21:11;0.7;0.3;0
74436;PMS7003;62868;52.360;30.424;2023-11-22T09:26:51;1.3;0.3;0
74436;PMS7003;62868;52.360;30.424;2023-11-22T09:31:43;0.7;0.3;0
74436;PMS7003;62868;52.360;30.424;2023-11-22T09:36:41;0.7;0.7;0
74436;PMS7003;62868;52.360;30.424;2023-11-22T09:41:51;0.3;0.3;0
74436;PMS7003;62868;52.360;30.424;2023-11-22T09:46:43;1;1;0.3
74436;PMS7003;62868;52.360;30.424;2023-11-22T09:51:51;1.3;1;0
74436;PMS7003;62868;52.360;30.424;2023-11-22T09:56:45;1.3;1;0
74436;PMS7003;62868;52.360;30.424;2023-11-22T10:01:21;0.3;0;0
74436;PMS7003;62868;52.360;30.424;2023-11-22T10:06:11;1.3;0;0
74436;PMS7003;62868;52.360;30.424;2023-11-22T10:11:45;0.3;0;0
74436;PMS7003;62868;52.360;30.424;2023-11-22T10:17:00;0.7;0;0
74436;PMS7003;62868;52.360;30.424;2023-11-22T10:21:45;0.7;0.3;0
74436;PMS7003;62868;52.360;30.424;2023-11-22T10:26:11;0;0;0
74436;PMS7003;62868;52.360;30.424;2023-11-22T10:31:17;0.3;0;0
74436;PMS7003;62868;52.360;30.424;2023-11-22T10:36:31;1.7;0.3;0.3
74436;PMS7003;62868;52.360;30.424;2023-11-22T10:41:55;1;0.7;0.3
74436;PMS7003;62868;52.360;30.424;2023-11-22T10:46:29;2;1;0.8
74436;PMS7003;62868;52.360;30.424;2023-11-22T10:51:10;1;0.7;0
74436;PMS7003;62868;52.360;30.424;2023-11-22T10:56:19;1;0.3;0.3
74436;PMS7003;62868;52.360;30.424;2023-11-22T11:01:25;0.3;0;0
74436;PMS7003;62868;52.360;30.424;2023-11-22T11:06:55;0.3;0;0
74436;PMS7003;62868;52.360;30.424;2023-11-22T11:11:45;0;0;0
74436;PMS7003;62868;52.360;30.424;2023-11-22T11:16:39;3;1.7;1.7
74436;PMS7003;62868;52.360;30.424;2023-11-22T11:21:09;13.3;9.3;6
74436;PMS7003;62868;52.360;30.424;2023-11-22T11:26:14;6.7;5.7;3.7
74436;PMS7003;62868;52.360;30.424;2023-11-22T11:31:33;5.3;4;2.7
74436;PMS7003;62868;52.360;30.424;2023-11-22T11:36:09;5.7;3.7;2.7
74436;PMS7003;62868;52.360;30.424;2023-11-22T11:41:37;4.8;3.5;2.3
74436;PMS7003;62868;52.360;30.424;2023-11-22T11:46:21;2;1;1
74436;PMS7003;62868;52.360;30.424;2023-11-22T11:51:33;2.7;2.7;1.7
74436;PMS7003;62868;52.360;30.424;2023-11-22T11:56:51;3.7;1.3;1
74436;PMS7003;62868;52.360;30.424;2023-11-22T12:01:43;3;2;1
74436;PMS7003;62868;52.360;30.424;2023-11-22T12:06:39;2.7;1.3;1
74436;PMS7003;62868;52.360;30.424;2023-11-22T12:11:45;1.7;1.7;0.7
74436;PMS7003;62868;52.360;30.424;2023-11-22T12:16:31;2.7;1;0.3
74436;PMS7003;62868;52.360;30.424;2023-11-22T12:21:51;0.5;0.3;0.3
74436;PMS7003;62868;52.360;30.424;2023-11-22T12:26:44;0.7;0;0
74436;PMS7003;62868;52.360;30.424;2023-11-22T12:31:43;0.7;0.3;0
74436;PMS7003;62868;52.360;30.424;2023-11-22T12:36:21;0;0;0
74436;PMS7003;62868;52.360;30.424;2023-11-22T12:41:41;0.5;0;0
74436;PMS7003;62868;52.360;30.424;2023-11-22T12:46:49;0.7;0.3;0
74436;PMS7003;62868;52.360;30.424;2023-11-22T12:51:19;1;0.3;0.3
74436;PMS7003;62868;52.360;30.424;2023-11-22T12:56:40;2.3;1;0.3
74436;PMS7003;62868;52.360;30.424;2023-11-22T13:01:17;0.8;0.5;0.3
74436;PMS7003;62868;52.360;30.424;2023-11-22T13:06:11;3.5;0.5;0
74436;PMS7003;62868;52.360;30.424;2023-11-22T13:11:41;0.3;0;0
74436;PMS7003;62868;52.360;30.424;2023-11-22T13:16:33;0.3;0;0
74436;PMS7003;62868;52.360;30.424;2023-11-22T13:21:11;0.7;0.3;0
74436;PMS7003;62868;52.360;30.424;2023-11-22T13:26:09;0.3;0.3;0.3
74436;PMS7003;62868;52.360;30.424;2023-11-22T13:31:11;1.5;0.8;0.8
74436;PMS7003;62868;52.360;30.424;2023-11-22T13:36:21;1.3;1.3;0.3
74436;PMS7003;62868;52.360;30.424;2023-11-22T13:41:53;1;0.3;0
74436;PMS7003;62868;52.360;30.424;2023-11-22T13:46:53;1.5;0;0
74436;PMS7003;62868;52.360;30.424;2023-11-22T13:51:51;1.3;0.7;0.3
74436;PMS7003;62868;52.360;30.424;2023-11-22T13:56:31;0.8;0;0
74436;PMS7003;62868;52.360;30.424;2023-11-22T14:01:41;1;0;0
74436;PMS7003;62868;52.360;30.424;2023-11-22T14:06:09;0.7;0;0
74436;PMS7003;62868;52.360;30.424;2023-11-22T14:11:23;0.3;0;0
74436;PMS7003;62868;52.360;30.424;2023-11-22T14:16:09;0;0;0
74436;PMS7003;62868;52.360;30.424;2023-11-22T14:21:11;0.3;0.3;0.3
74436;PMS7003;62868;52.360;30.424;2023-11-22T14:26:55;0.7;0;0
74436;PMS7003;62868;52.360;30.424;2023-11-22T14:31:55;1;0;0
74436;PMS7003;62868;52.360;30.424;2023-11-22T14:36:21;0.3;0.3;0.3
74436;PMS7003;62868;52.360;30.424;2023-11-22T14:41:55;0;0;0
74436;PMS7003;62868;52.360;30.424;2023-11-22T14:46:31;0;0;0
74436;PMS7003;62868;52.360;30.424;2023-11-22T14:51:41;5;3.3;2.5
74436;PMS7003;62868;52.360;30.424;2023-11-22T14:56:09;2.3;2.3;0.7
74436;PMS7003;62868;52.360;30.424;2023-11-22T15:01:09;1.3;0.7;0.7
74436;PMS7003;62868;52.360;30.424;2023-11-22T15:06:21;1.3;0.3;0
74436;PMS7003;62868;52.360;30.424;2023-11-22T15:11:29;1;0.5;0
74436;PMS7003;62868;52.360;30.424;2023-11-22T15:16:52;0.3;0.3;0
74436;PMS7003;62868;52.360;30.424;2023-11-22T15:21:53;0;0;0
74436;PMS7003;62868;52.360;30.424;2023-11-22T15:26:39;0.3;0;0
74436;PMS7003;62868;52.360;30.424;2023-11-22T15:31:49;1.3;0.3;0
74436;PMS7003;62868;52.360;30.424;2023-11-22T15:36:11;0.3;0.3;0
74436;PMS7003;62868;52.360;30.424;2023-11-22T15:41:11;0.7;0.3;0
74436;PMS7003;62868;52.360;30.424;2023-11-22T15:46:19;1.3;0.3;0
74436;PMS7003;62868;52.360;30.424;2023-11-22T15:51:11;1;0.3;0
74436;PMS7003;62868;52.360;30.424;2023-11-22T15:56:11;1.3;0;0
74436;PMS7003;62868;52.360;30.424;2023-11-22T16:01:09;0.3;0;0
74436;PMS7003;62868;52.360;30.424;2023-11-22T16:06:55;0.3;0;0
74436;PMS7003;62868;52.360;30.424;2023-11-22T16:11:51;0.3;0;0
74436;PMS7003;62868;52.360;30.424;2023-11-22T16:16:39;1.7;1;0.3
74436;PMS7003;62868;52.360;30.424;2023-11-22T16:21:51;1;0.7;0.7
74436;PMS7003;62868;52.360;30.424;2023-11-22T16:26:09;2.3;1;0.3
74436;PMS7003;62868;52.360;30.424;2023-11-22T16:31:39;1.7;0;0
74436;PMS7003;62868;52.360;30.424;2023-11-22T16:36:21;0.7;0.7;0.3
74436;PMS7003;62868;52.360;30.424;2023-11-22T16:41:43;0.3;0;0
74436;PMS7003;62868;52.360;30.424;2023-11-22T16:46:11;0;0;0
74436;PMS7003;62868;52.360;30.424;2023-11-22T16:51:21;0;0;0
74436;PMS7003;62868;52.360;30.424;2023-11-22T16:56:53;0.3;0;0
74436;PMS7003;62868;52.360;30.424;2023-11-22T17:01:53;0;0;0
74436;PMS7003;62868;52.360;30.424;2023-11-22T17:06:39;1.3;0.3;0
74436;PMS7003;62868;52.360;30.424;2023-11-22T17:11:53;0.7;0;0
74436;PMS7003;62868;52.360;30.424;2023-11-22T17:16:43;0.3;0.3;0.3
74436;PMS7003;62868;52.360;30.424;2023-11-22T17:21:53;0;0;0
74436;PMS7003;62868;52.360;30.424;2023-11-22T17:26:11;0;0;0
74436;PMS7003;62868;52.360;30.424;2023-11-22T17:31:09;0;0;0
74436;PMS7003;62868;52.360;30.424;2023-11-22T17:36:21;0;0;0
74436;PMS7003;62868;52.360;30.424;2023-11-22T17:41:09;0;0;0
74436;PMS7003;62868;52.360;30.424;2023-11-22T17:46:51;0;0;0
74436;PMS7003;62868;52.360;30.424;2023-11-22T17:51:53;0;0;0
74436;PMS7003;62868;52.360;30.424;2023-11-22T17:56:39;0;0;0
74436;PMS7003;62868;52.360;30.424;2023-11-22T18:01:53;0;0;0
74436;PMS7003;62868;52.360;30.424;2023-11-22T18:06:29;0.3;0;0
74436;PMS7003;62868;52.360;30.424;2023-11-22T18:11:37;0;0;0
74436;PMS7003;62868;52.360;30.424;2023-11-22T18:16:33;0;0;0
74436;PMS7003;62868;52.360;30.424;2023-11-22T18:21:27;0;0;0
74436;PMS7003;62868;52.360;30.424;2023-11-22T18:26:11;0;0;0
74436;PMS7003;62868;52.360;30.424;2023-11-22T18:31:43;0;0;0
74436;PMS7003;62868;52.360;30.424;2023-11-22T18:36:53;0;0;0
74436;PMS7003;62868;52.360;30.424;2023-11-22T18:41:53;0;0;0
74436;PMS7003;62868;52.360;30.424;2023-11-22T18:46:41;0;0;0
74436;PMS7003;62868;52.360;30.424;2023-11-22T18:51:55;0;0;0
74436;PMS7003;62868;52.360;30.424;2023-11-22T18:56:20;0;0;0
74436;PMS7003;62868;52.360;30.424;2023-11-22T19:01:39;0;0;0
74436;PMS7003;62868;52.360;30.424;2023-11-22T19:06:47;0;0;0
74436;PMS7003;62868;52.360;30.424;2023-11-22T19:11:29;0;0;0
74436;PMS7003;62868;52.360;30.424;2023-11-22T19:16:11;0;0;0
74436;PMS7003;62868;52.360;30.424;2023-11-22T19:21:19;0;0;0
74436;PMS7003;62868;52.360;30.424;2023-11-22T19:26:51;0;0;0
74436;PMS7003;62868;52.360;30.424;2023-11-22T19:31:42;0;0;0
74436;PMS7003;62868;52.360;30.424;2023-11-22T19:36:29;0;0;0
74436;PMS7003;62868;52.360;30.424;2023-11-22T19:41:52;0;0;0
74436;PMS7003;62868;52.360;30.424;2023-11-22T19:46:09;0;0;0
74436;PMS7003;62868;52.360;30.424;2023-11-22T19:51:39;0;0;0
74436;PMS7003;62868;52.360;30.424;2023-11-22T19:56:31;0.3;0;0
74436;PMS7003;62868;52.360;30.424;2023-11-22T20:01:27;0;0;0
74436;PMS7003;62868;52.360;30.424;2023-11-22T20:06:11;0;0;0
74436;PMS7003;62868;52.360;30.424;2023-11-22T20:11:11;0;0;0
74436;PMS7003;62868;52.360;30.424;2023-11-22T20:16:51;0;0;0
74436;PMS7003;62868;52.360;30.424;2023-11-22T20:21:47;0;0;0
74436;PMS7003;62868;52.360;30.424;2023-11-22T20:26:35;0;0;0
74436;PMS7003;62868;52.360;30.424;2023-11-22T20:31:49;0;0;0
74436;PMS7003;62868;52.360;30.424;2023-11-22T20:36:11;0;0;0
74436;PMS7003;62868;52.360;30.424;2023-11-22T20:41:37;0;0;0
74436;PMS7003;62868;52.360;30.424;2023-11-22T20:46:29;0;0;0
74436;PMS7003;62868;52.360;30.424;2023-11-22T20:51:11;0.7;0.3;0
74436;PMS7003;62868;52.360;30.424;2023-11-22T20:56:21;0;0;0
74436;PMS7003;62868;52.360;30.424;2023-11-22T21:01:09;0;0;0
74436;PMS7003;62868;52.360;30.424;2023-11-22T21:06:53;0.3;0;0
74436;PMS7003;62868;52.360;30.424;2023-11-22T21:11:51;0.3;0;0
74436;PMS7003;62868;52.360;30.424;2023-11-22T21:16:53;0.3;0.3;0
74436;PMS7003;62868;52.360;30.424;2023-11-22T21:21:53;0;0;0
74436;PMS7003;62868;52.360;30.424;2023-11-22T21:26:29;0;0;0
74436;PMS7003;62868;52.360;30.424;2023-11-22T21:31:39;0;0;0
74436;PMS7003;62868;52.360;30.424;2023-11-22T21:36:29;0;0;0
74436;PMS7003;62868;52.360;30.424;2023-11-22T21:41:27;0.3;0;0
74436;PMS7003;62868;52.360;30.424;2023-11-22T21:46:14;0;0;0
74436;PMS7003;62868;52.360;30.424;2023-11-22T21:51:11;0;0;0
74436;PMS7003;62868;52.360;30.424;2023-11-22T21:56:53;0.3;0;0
74436;PMS7003;62868;52.360;30.424;2023-11-22T22:01:53;0;0;0
74436;PMS7003;62868;52.360;30.424;2023-11-22T22:06:12;0;0;0
74436;PMS7003;62868;52.360;30.424;2023-11-22T22:11:51;0;0;0
74436;PMS7003;62868;52.360;30.424;2023-11-22T22:16:29;0;0;0
74436;PMS7003;62868;52.360;30.424;2023-11-22T22:21:47;0;0;0
74436;PMS7003;62868;52.360;30.424;2023-11-22T22:26:09;0;0;0
74436;PMS7003;62868;52.360;30.424;2023-11-22T22:31:11;0.3;0;0
74436;PMS7003;62868;52.360;30.424;2023-11-22T22:36:14;0;0;0
74436;PMS7003;62868;52.360;30.424;2023-11-22T22:41:09;0;0;0
74436;PMS7003;62868;52.360;30.424;2023-11-22T22:46:43;0.3;0;0
74436;PMS7003;62868;52.360;30.424;2023-11-22T22:51:53;0.3;0;0
74436;PMS7003;62868;52.360;30.424;2023-11-22T22:56:53;0;0;0
74436;PMS7003;62868;52.360;30.424;2023-11-22T23:01:51;0;0;0
74436;PMS7003;62868;52.360;30.424;2023-11-22T23:06:27;0;0;0
74436;PMS7003;62868;52.360;30.424;2023-11-22T23:11:11;0;0;0
74436;PMS7003;62868;52.360;30.424;2023-11-22T23:16:09;0;0;0
74436;PMS7003;62868;52.360;30.424;2023-11-22T23:21:45;0.3;0;0
74436;PMS7003;62868;52.360;30.424;2023-11-22T23:26:21;0;0;0
74436;PMS7003;62868;52.360;30.424;2023-11-22T23:31:31;0.3;0;0
74436;PMS7003;62868;52.360;30.424;2023-11-22T23:36:51;0.3;0;0
74436;PMS7003;62868;52.360;30.424;2023-11-22T23:41:51;0;0;0
74436;PMS7003;62868;52.360;30.424;2023-11-22T23:46:19;0.3;0;0
74436;PMS7003;62868;52.360;30.424;2023-11-22T23:51:51;0;0;0
74436;PMS7003;62868;52.360;30.424;2023-11-22T23:56:27;0;0;0
